Time;durP1;ratioP1;P1;durP2;ratioP2;P2;SDS_P1;SDS_P2;PMS_P1;PMS_P2;Temp;Humidity;BMP_temperature;BMP_pressure;BME280_temperature;BME280_humidity;BME280_pressure;Samples;Min_cycle;Max_cycle;Signal;HPM_P1;HPM_P2
2021/12/25 00:01:35;;;;;;;;;;;13.90;99.90;;;;;;5075869;28;952;-55
2021/12/25 00:04:01;;;;;;;;;;;13.90;99.90;;;;;;5076533;28;821;-56
2021/12/25 00:06:27;;;;;;;;;;;13.90;99.90;;;;;;5075316;28;954;-56
2021/12/25 00:08:55;;;;;;;;;;;13.90;99.90;;;;;;5076769;28;1146;-56
2021/12/25 00:11:23;;;;;;;;;;;13.80;99.90;;;;;;5076310;28;1909;-56
2021/12/25 00:13:51;;;;;;;;;;;13.80;99.90;;;;;;5075846;28;957;-56
2021/12/25 00:16:16;;;;;;;;;;;13.80;99.90;;;;;;5075882;28;1283;-55
2021/12/25 00:18:42;;;;;;;;;;;13.80;99.90;;;;;;5076000;28;774;-56
2021/12/25 00:21:08;;;;;;;;;;;13.80;99.90;;;;;;5076067;28;1142;-55
2021/12/25 00:23:35;;;;;;;;;;;13.80;99.90;;;;;;5076018;28;1415;-56
2021/12/25 00:26:07;;;;;;;;;;;13.80;99.90;;;;;;5080983;28;840;-56
2021/12/25 00:33:52;;;;;;;;;;;13.70;99.90;;;;;;5076408;28;881;-46
2021/12/25 00:36:19;;;;;;;;;;;13.70;99.90;;;;;;5057127;28;1399;-46
2021/12/25 00:38:46;;;;;;;;;;;13.70;99.90;;;;;;5094719;28;832;-46
2021/12/25 00:41:13;;;;;;;;;;;13.70;99.90;;;;;;5073049;28;871;-46
2021/12/25 00:43:39;;;;;;;;;;;13.70;99.90;;;;;;5075435;28;896;-46
2021/12/25 00:46:05;;;;;;;;;;;13.70;99.90;;;;;;5075893;28;931;-46
2021/12/25 00:48:31;;;;;;;;;;;13.70;99.90;;;;;;5075556;28;903;-46
2021/12/25 00:50:58;;;;;;;;;;;13.70;99.90;;;;;;5076117;28;1914;-46
2021/12/25 00:53:24;;;;;;;;;;;13.60;99.90;;;;;;5071204;28;936;-46
2021/12/25 00:55:53;;;;;;;;;;;13.60;99.90;;;;;;5071100;28;864;-46
2021/12/25 00:58:19;;;;;;;;;;;13.60;99.90;;;;;;5075505;28;809;-46
2021/12/25 01:00:47;;;;;;;;;;;13.60;99.90;;;;;;5075946;28;890;-46
2021/12/25 01:03:13;;;;;;;;;;;13.60;99.90;;;;;;5054012;28;1025;-46
2021/12/25 01:05:39;;;;;;;;;;;13.60;99.90;;;;;;5053721;28;1112;-46
2021/12/25 01:08:06;;;;;;;;;;;13.60;99.90;;;;;;5053603;28;877;-46
2021/12/25 01:10:34;;;;;;;;;;;13.60;99.90;;;;;;5053761;28;1979;-46
2021/12/25 01:18:51;;;;;;;;;;;13.50;99.90;;;;;;5053702;28;1027;-46
2021/12/25 01:21:41;;;;;;;;;;;13.50;99.90;;;;;;5053144;28;1563;-46
2021/12/25 01:32:35;;;;;;;;;;;13.50;99.90;;;;;;5053142;28;1975;-46
2021/12/25 01:38:37;;;;;;;;;;;13.50;99.90;;;;;;5075387;28;833;-46
2021/12/25 01:48:37;;;;;;;;;;;13.40;99.90;;;;;;5075446;28;832;-55
2021/12/25 01:51:04;;;;;;;;;;;13.40;99.90;;;;;;5073374;28;1899;-55
2021/12/25 01:53:31;;;;;;;;;;;13.40;99.90;;;;;;5075212;28;877;-55
2021/12/25 01:55:58;;;;;;;;;;;13.40;99.90;;;;;;5077053;28;920;-55
2021/12/25 01:58:24;;;;;;;;;;;13.30;99.90;;;;;;5079000;28;1073;-56
2021/12/25 02:00:52;;;;;;;;;;;13.30;99.90;;;;;;5078900;28;1076;-56
2021/12/25 02:03:22;;;;;;;;;;;13.30;99.90;;;;;;5078612;28;875;-56
2021/12/25 02:05:48;;;;;;;;;;;13.30;99.90;;;;;;5079090;28;875;-56
2021/12/25 02:08:15;;;;;;;;;;;13.30;99.90;;;;;;5078793;28;832;-56
2021/12/25 02:10:43;;;;;;;;;;;13.30;99.90;;;;;;5078564;28;1906;-56
2021/12/25 02:13:12;;;;;;;;;;;13.30;99.90;;;;;;5078386;28;940;-56
2021/12/25 02:15:42;;;;;;;;;;;13.30;99.90;;;;;;5078267;28;1282;-56
2021/12/25 02:21:09;;;;;;;;;;;13.20;99.90;;;;;;5078698;28;900;-56
2021/12/25 02:23:39;;;;;;;;;;;13.20;99.90;;;;;;5078221;28;1059;-56
2021/12/25 02:26:05;;;;;;;;;;;13.20;99.90;;;;;;5075254;28;907;-56
2021/12/25 02:28:33;;;;;;;;;;;13.20;99.90;;;;;;5078437;28;901;-56
2021/12/25 02:31:02;;;;;;;;;;;13.20;99.90;;;;;;5076918;28;1965;-56
2021/12/25 02:33:28;;;;;;;;;;;13.20;99.90;;;;;;5078324;28;936;-56
2021/12/25 02:35:55;;;;;;;;;;;13.20;99.90;;;;;;5077534;28;859;-56
2021/12/25 02:38:21;;;;;;;;;;;13.20;99.90;;;;;;5078324;28;884;-56
2021/12/25 02:40:47;;;;;;;;;;;13.10;99.90;;;;;;5078137;28;848;-56
2021/12/25 02:43:15;;;;;;;;;;;13.10;99.90;;;;;;5077649;28;824;-56
2021/12/25 02:45:41;;;;;;;;;;;13.10;99.90;;;;;;5077813;28;956;-56
2021/12/25 02:48:10;;;;;;;;;;;13.10;99.90;;;;;;5078251;28;949;-56
2021/12/25 02:50:39;;;;;;;;;;;13.10;99.90;;;;;;5076610;28;1906;-56
2021/12/25 02:53:07;;;;;;;;;;;13.10;99.90;;;;;;5075797;28;1106;-56
2021/12/25 02:55:36;;;;;;;;;;;13.10;99.90;;;;;;5076330;28;825;-56
2021/12/25 02:58:02;;;;;;;;;;;13.10;99.90;;;;;;5076079;28;912;-56
2021/12/25 03:00:30;;;;;;;;;;;13.10;99.90;;;;;;5075746;28;816;-56
2021/12/25 03:02:56;;;;;;;;;;;13.10;99.90;;;;;;5075770;28;873;-56
2021/12/25 03:05:22;;;;;;;;;;;13.10;99.90;;;;;;5075839;28;1040;-56
2021/12/25 03:07:49;;;;;;;;;;;13.10;99.90;;;;;;5075691;28;882;-56
2021/12/25 03:10:17;;;;;;;;;;;13.00;99.90;;;;;;5075837;28;1080;-56
2021/12/25 03:13:05;;;;;;;;;;;13.00;99.90;;;;;;5075455;28;1906;-56
2021/12/25 03:15:45;;;;;;;;;;;13.00;99.90;;;;;;5075749;28;838;-56
2021/12/25 03:18:14;;;;;;;;;;;13.10;99.90;;;;;;5058489;28;957;-56
2021/12/25 03:20:46;;;;;;;;;;;13.00;99.90;;;;;;5075583;28;897;-56
2021/12/25 03:23:17;;;;;;;;;;;13.00;99.90;;;;;;5075883;28;1053;-56
2021/12/25 03:25:48;;;;;;;;;;;13.00;99.90;;;;;;5075921;28;828;-56
2021/12/25 03:28:16;;;;;;;;;;;13.00;99.90;;;;;;5058808;28;1094;-56
2021/12/25 03:30:44;;;;;;;;;;;13.00;99.90;;;;;;5075816;28;1906;-56
2021/12/25 03:33:12;;;;;;;;;;;13.00;99.90;;;;;;5075885;28;955;-56
2021/12/25 03:35:38;;;;;;;;;;;13.00;99.90;;;;;;5092508;28;891;-56
2021/12/25 03:38:05;;;;;;;;;;;12.90;99.90;;;;;;5077180;28;828;-56
2021/12/25 03:40:31;;;;;;;;;;;12.90;99.90;;;;;;5077366;28;855;-56
2021/12/25 03:42:57;;;;;;;;;;;12.90;99.90;;;;;;5077141;28;860;-56
2021/12/25 03:45:23;;;;;;;;;;;12.90;99.90;;;;;;5076357;28;860;-56
2021/12/25 03:48:02;;;;;;;;;;;12.90;99.90;;;;;;5077148;28;905;-56
2021/12/25 03:58:28;;;;;;;;;;;12.90;99.90;;;;;;5076750;28;853;-56
2021/12/25 04:01:01;;;;;;;;;;;12.90;99.90;;;;;;5076726;28;960;-56
2021/12/25 04:03:41;;;;;;;;;;;12.90;99.90;;;;;;5076702;28;848;-56
2021/12/25 04:06:10;;;;;;;;;;;12.80;99.90;;;;;;5076190;28;904;-56
2021/12/25 04:08:42;;;;;;;;;;;12.90;99.90;;;;;;5058053;28;1044;-56
2021/12/25 04:11:25;;;;;;;;;;;12.80;99.90;;;;;;5075794;28;1959;-56
2021/12/25 04:13:51;;;;;;;;;;;12.80;99.90;;;;;;5075041;28;1379;-56
2021/12/25 04:16:19;;;;;;;;;;;12.80;99.90;;;;;;5076571;28;978;-56
2021/12/25 04:18:47;;;;;;;;;;;12.80;99.90;;;;;;5075629;28;898;-56
2021/12/25 04:21:15;;;;;;;;;;;12.80;99.90;;;;;;5058244;28;1031;-56
2021/12/25 04:23:44;;;;;;;;;;;12.80;99.90;;;;;;5076516;28;798;-56
2021/12/25 04:26:12;;;;;;;;;;;12.80;99.90;;;;;;5076127;28;924;-55
2021/12/25 04:29:02;;;;;;;;;;;12.80;99.90;;;;;;5075803;28;966;-55
2021/12/25 04:32:06;;;;;;;;;;;12.70;99.90;;;;;;5075616;28;1902;-56
2021/12/25 05:04:09;;;;;;;;;;;12.60;99.90;;;;;;5075579;28;959;-56
2021/12/25 05:06:35;;;;;;;;;;;12.60;99.90;;;;;;5075457;28;856;-56
2021/12/25 05:09:01;;;;;;;;;;;12.60;99.90;;;;;;5075475;28;1091;-55
2021/12/25 05:11:27;;;;;;;;;;;12.60;99.90;;;;;;5076022;28;1965;-55
2021/12/25 05:13:54;;;;;;;;;;;12.60;99.90;;;;;;5075742;28;876;-56
2021/12/25 05:16:21;;;;;;;;;;;12.60;99.90;;;;;;5075707;28;1028;-56
2021/12/25 05:18:51;;;;;;;;;;;12.60;99.90;;;;;;5076027;28;888;-56
2021/12/25 05:21:20;;;;;;;;;;;12.50;99.90;;;;;;5075487;28;915;-55
2021/12/25 05:23:47;;;;;;;;;;;12.60;99.90;;;;;;5073689;28;1149;-56
2021/12/25 05:26:14;;;;;;;;;;;12.50;99.90;;;;;;5073921;28;948;-56
2021/12/25 05:28:42;;;;;;;;;;;12.50;99.90;;;;;;5075426;28;820;-56
2021/12/25 05:31:09;;;;;;;;;;;12.50;99.90;;;;;;5079082;28;1905;-56
2021/12/25 05:33:36;;;;;;;;;;;12.50;99.90;;;;;;5079663;28;899;-56
2021/12/25 05:36:02;;;;;;;;;;;12.50;99.90;;;;;;5079656;28;868;-56
2021/12/25 05:38:28;;;;;;;;;;;12.50;99.90;;;;;;5079769;28;870;-55
2021/12/25 05:40:56;;;;;;;;;;;12.50;99.90;;;;;;5079084;28;861;-46
2021/12/25 05:43:23;;;;;;;;;;;12.50;99.90;;;;;;5078987;28;853;-46
2021/12/25 05:45:51;;;;;;;;;;;12.50;99.90;;;;;;5078976;28;940;-46
2021/12/25 05:48:19;;;;;;;;;;;12.50;99.90;;;;;;5079688;28;813;-46
2021/12/25 05:50:45;;;;;;;;;;;12.40;99.90;;;;;;5079312;28;934;-46
2021/12/25 05:53:11;;;;;;;;;;;12.40;99.90;;;;;;5077689;28;1973;-46
2021/12/25 05:55:37;;;;;;;;;;;12.40;99.90;;;;;;5079500;28;825;-47
2021/12/25 05:58:03;;;;;;;;;;;12.40;99.90;;;;;;5078697;28;924;-47
2021/12/25 06:00:30;;;;;;;;;;;12.40;99.90;;;;;;5079011;28;888;-46
2021/12/25 06:02:57;;;;;;;;;;;12.40;99.90;;;;;;5077724;28;871;-46
2021/12/25 06:05:26;;;;;;;;;;;12.40;99.90;;;;;;5078039;28;1403;-48
2021/12/25 06:07:53;;;;;;;;;;;12.40;99.90;;;;;;5081108;28;883;-47
2021/12/25 06:10:21;;;;;;;;;;;12.40;99.90;;;;;;5078609;28;1103;-47
2021/12/25 06:12:49;;;;;;;;;;;12.40;99.90;;;;;;5060819;28;1973;-47
2021/12/25 06:15:18;;;;;;;;;;;12.40;99.90;;;;;;5078678;28;1010;-47
2021/12/25 06:17:45;;;;;;;;;;;12.30;99.90;;;;;;5076788;28;948;-46
2021/12/25 06:20:10;;;;;;;;;;;12.30;99.90;;;;;;5078460;28;888;-46
2021/12/25 06:22:36;;;;;;;;;;;12.30;99.90;;;;;;5077821;28;1443;-46
2021/12/25 06:25:03;;;;;;;;;;;12.30;99.90;;;;;;5084276;28;919;-46
2021/12/25 06:27:29;;;;;;;;;;;12.30;99.90;;;;;;5078677;28;950;-46
2021/12/25 06:29:55;;;;;;;;;;;12.30;99.90;;;;;;5078294;28;884;-46
2021/12/25 06:32:23;;;;;;;;;;;12.30;99.90;;;;;;5078304;28;1906;-46
2021/12/25 06:34:51;;;;;;;;;;;12.30;99.90;;;;;;5077755;28;1642;-46
2021/12/25 06:37:18;;;;;;;;;;;12.30;99.90;;;;;;5078000;28;911;-46
2021/12/25 06:39:44;;;;;;;;;;;12.30;99.90;;;;;;5076123;28;917;-46
2021/12/25 06:42:10;;;;;;;;;;;12.30;99.90;;;;;;5093281;28;896;-46
2021/12/25 06:44:36;;;;;;;;;;;12.20;99.90;;;;;;5078065;28;931;-46
2021/12/25 06:47:02;;;;;;;;;;;12.20;99.90;;;;;;5078181;28;908;-56
2021/12/25 06:49:29;;;;;;;;;;;12.20;99.90;;;;;;5078316;28;927;-56
2021/12/25 06:51:57;;;;;;;;;;;12.20;99.90;;;;;;5076764;28;1967;-56
2021/12/25 06:54:25;;;;;;;;;;;12.20;99.90;;;;;;5078086;28;862;-56
2021/12/25 06:56:51;;;;;;;;;;;12.20;99.90;;;;;;5059814;28;985;-56
2021/12/25 06:59:18;;;;;;;;;;;12.20;99.90;;;;;;5077665;28;937;-56
2021/12/25 07:01:44;;;;;;;;;;;12.20;99.90;;;;;;5077527;28;844;-55
2021/12/25 07:04:10;;;;;;;;;;;12.20;99.90;;;;;;5070986;28;968;-56
2021/12/25 07:06:37;;;;;;;;;;;12.20;99.90;;;;;;5077958;28;979;-56
2021/12/25 07:09:05;;;;;;;;;;;12.10;99.90;;;;;;5077989;28;1160;-55
2021/12/25 07:11:31;;;;;;;;;;;12.10;99.90;;;;;;5077681;28;1914;-56
2021/12/25 07:14:00;;;;;;;;;;;12.10;99.90;;;;;;5077542;28;813;-56
2021/12/25 07:16:26;;;;;;;;;;;12.10;99.90;;;;;;5077773;28;805;-56
2021/12/25 07:18:53;;;;;;;;;;;12.10;99.90;;;;;;5076857;28;876;-56
2021/12/25 07:21:19;;;;;;;;;;;12.10;99.90;;;;;;5077583;28;892;-56
2021/12/25 07:23:44;;;;;;;;;;;12.10;99.90;;;;;;5077497;28;840;-56
2021/12/25 07:26:16;;;;;;;;;;;12.10;99.90;;;;;;5077798;28;794;-55
2021/12/25 07:28:44;;;;;;;;;;;12.10;99.90;;;;;;5077728;28;888;-56
2021/12/25 07:31:11;;;;;;;;;;;12.10;99.90;;;;;;5077431;28;943;-56
2021/12/25 07:33:40;;;;;;;;;;;12.10;99.90;;;;;;5076472;28;1967;-55
2021/12/25 07:36:11;;;;;;;;;;;12.10;99.90;;;;;;5077271;28;1058;-55
2021/12/25 07:38:39;;;;;;;;;;;12.10;99.90;;;;;;5093083;28;836;-55
2021/12/25 07:41:06;;;;;;;;;;;12.10;99.90;;;;;;5077103;28;855;-56
2021/12/25 07:43:32;;;;;;;;;;;12.00;99.90;;;;;;5077134;28;820;-56
2021/12/25 07:45:58;;;;;;;;;;;12.10;99.90;;;;;;5076909;28;821;-56
2021/12/25 07:48:26;;;;;;;;;;;12.10;99.90;;;;;;5077237;28;1145;-56
2021/12/25 07:50:53;;;;;;;;;;;12.10;99.90;;;;;;5075039;28;889;-56
2021/12/25 07:53:19;;;;;;;;;;;12.10;99.90;;;;;;5076675;28;1977;-56
2021/12/25 07:55:50;;;;;;;;;;;12.10;99.90;;;;;;5076845;28;875;-56
2021/12/25 07:58:17;;;;;;;;;;;12.10;99.90;;;;;;5076669;28;801;-56
2021/12/25 08:00:44;;;;;;;;;;;12.20;99.90;;;;;;5076503;28;884;-56
2021/12/25 08:03:11;;;;;;;;;;;12.20;99.90;;;;;;5076928;28;903;-56
2021/12/25 08:05:38;;;;;;;;;;;12.30;99.90;;;;;;5092767;28;866;-56
2021/12/25 08:08:06;;;;;;;;;;;12.30;99.90;;;;;;5076644;28;870;-56
2021/12/25 08:10:33;;;;;;;;;;;12.40;99.90;;;;;;5074669;28;1077;-56
2021/12/25 08:12:59;;;;;;;;;;;12.40;99.90;;;;;;5058178;28;1902;-56
2021/12/25 08:15:26;;;;;;;;;;;12.50;99.90;;;;;;5075963;28;808;-56
2021/12/25 08:17:53;;;;;;;;;;;12.60;99.90;;;;;;5076729;28;867;-56
2021/12/25 08:20:19;;;;;;;;;;;12.70;99.90;;;;;;5076438;28;927;-56
2021/12/25 08:22:46;;;;;;;;;;;12.70;99.90;;;;;;5076458;28;853;-46
2021/12/25 08:25:14;;;;;;;;;;;12.80;99.90;;;;;;5074616;28;1289;-46
2021/12/25 08:27:43;;;;;;;;;;;12.90;99.90;;;;;;5076188;28;928;-46
2021/12/25 08:30:11;;;;;;;;;;;13.00;99.90;;;;;;5076039;28;886;-46
2021/12/25 08:32:41;;;;;;;;;;;13.10;99.90;;;;;;5075698;28;1906;-46
2021/12/25 08:35:10;;;;;;;;;;;13.10;99.90;;;;;;5075956;28;813;-46
2021/12/25 08:37:36;;;;;;;;;;;13.20;99.90;;;;;;5076193;28;793;-46
2021/12/25 08:40:03;;;;;;;;;;;13.30;99.90;;;;;;5076178;28;884;-46
2021/12/25 08:42:30;;;;;;;;;;;13.40;99.90;;;;;;5075744;28;889;-46
2021/12/25 08:47:21;;;;;;;;;;;13.50;99.90;;;;;;5076187;28;959;-46
2021/12/25 08:49:47;;;;;;;;;;;13.60;99.90;;;;;;5075816;28;936;-46
2021/12/25 08:52:15;;;;;;;;;;;13.60;99.90;;;;;;5075595;28;1906;-46
2021/12/25 08:54:43;;;;;;;;;;;13.70;99.90;;;;;;5076183;28;814;-46
2021/12/25 08:57:12;;;;;;;;;;;13.70;99.90;;;;;;5075849;28;841;-46
2021/12/25 08:59:40;;;;;;;;;;;13.70;99.90;;;;;;5075817;28;932;-47
2021/12/25 09:02:11;;;;;;;;;;;13.70;99.90;;;;;;5075176;28;853;-46
2021/12/25 09:04:38;;;;;;;;;;;13.80;99.90;;;;;;5075983;28;872;-46
2021/12/25 09:07:04;;;;;;;;;;;13.80;99.90;;;;;;5075644;28;932;-46
2021/12/25 09:09:30;;;;;;;;;;;13.80;99.90;;;;;;5075146;28;1284;-46
2021/12/25 09:11:56;;;;;;;;;;;13.80;99.90;;;;;;5075737;28;1910;-46
2021/12/25 09:14:22;;;;;;;;;;;13.80;99.90;;;;;;5075856;28;852;-46
2021/12/25 09:16:49;;;;;;;;;;;13.80;99.90;;;;;;5075418;28;864;-47
2021/12/25 09:19:16;;;;;;;;;;;13.80;99.90;;;;;;5075330;28;793;-46
2021/12/25 09:21:43;;;;;;;;;;;13.80;99.90;;;;;;5075852;28;817;-46
2021/12/25 09:24:10;;;;;;;;;;;13.80;99.90;;;;;;5070486;28;864;-46
2021/12/25 09:26:36;;;;;;;;;;;13.80;99.90;;;;;;5075144;28;857;-46
2021/12/25 09:29:02;;;;;;;;;;;13.70;99.90;;;;;;5075424;28;912;-46
2021/12/25 09:31:28;;;;;;;;;;;13.70;99.90;;;;;;5075228;28;861;-46
2021/12/25 09:33:55;;;;;;;;;;;13.70;99.90;;;;;;5074454;28;1910;-46
2021/12/25 09:36:22;;;;;;;;;;;13.70;99.90;;;;;;5075429;28;966;-46
2021/12/25 09:38:50;;;;;;;;;;;13.70;99.90;;;;;;5075424;28;893;-46
2021/12/25 09:41:16;;;;;;;;;;;13.60;99.90;;;;;;5075262;28;905;-47
2021/12/25 09:43:46;;;;;;;;;;;13.60;99.90;;;;;;5073825;28;1025;-46
2021/12/25 09:46:13;;;;;;;;;;;13.60;99.90;;;;;;5073100;28;1132;-46
2021/12/25 09:48:39;;;;;;;;;;;13.60;99.90;;;;;;5075631;28;872;-46
2021/12/25 09:51:05;;;;;;;;;;;13.60;99.90;;;;;;5075327;28;954;-46
2021/12/25 09:53:32;;;;;;;;;;;13.60;99.90;;;;;;5075120;28;1972;-46
2021/12/25 09:55:58;;;;;;;;;;;13.50;99.90;;;;;;5074801;28;897;-47
2021/12/25 09:58:24;;;;;;;;;;;13.50;99.90;;;;;;5074769;28;930;-46
2021/12/25 10:00:51;;;;;;;;;;;13.50;99.90;;;;;;5074469;28;1068;-46
2021/12/25 10:03:19;;;;;;;;;;;13.50;99.90;;;;;;5075194;28;1017;-46
2021/12/25 10:05:48;;;;;;;;;;;13.50;99.90;;;;;;5075475;28;959;-46
2021/12/25 10:08:33;;;;;;;;;;;13.50;99.90;;;;;;5091463;28;936;-46
2021/12/25 10:11:01;;;;;;;;;;;13.50;99.90;;;;;;5074774;28;1155;-46
2021/12/25 10:13:35;;;;;;;;;;;13.50;99.90;;;;;;5074885;28;1909;-46
2021/12/25 10:16:21;;;;;;;;;;;13.50;99.90;;;;;;5075042;28;902;-46
2021/12/25 10:18:47;;;;;;;;;;;13.50;99.90;;;;;;5078572;28;887;-46
2021/12/25 10:21:22;;;;;;;;;;;13.50;99.90;;;;;;5094083;28;1308;-46
2021/12/25 10:24:07;;;;;;;;;;;13.60;99.90;;;;;;5078588;28;851;-46
2021/12/25 10:26:34;;;;;;;;;;;13.60;99.90;;;;;;5078641;28;856;-46
2021/12/25 10:29:13;;;;;;;;;;;13.60;99.90;;;;;;5076771;28;872;-46
2021/12/25 10:31:39;;;;;;;;;;;13.60;99.90;;;;;;5093516;28;1265;-46
2021/12/25 10:34:13;;;;;;;;;;;13.60;99.90;;;;;;5077425;28;1973;-47
2021/12/25 10:36:39;;;;;;;;;;;13.60;99.90;;;;;;5078432;28;808;-46
2021/12/25 10:39:13;;;;;;;;;;;13.60;99.90;;;;;;5072069;28;837;-46
2021/12/25 10:41:41;;;;;;;;;;;13.60;99.90;;;;;;5094107;28;1484;-46
2021/12/25 10:44:26;;;;;;;;;;;13.60;99.90;;;;;;5076786;28;969;-46
2021/12/25 10:47:04;;;;;;;;;;;13.60;99.90;;;;;;5077514;28;905;-46
2021/12/25 10:49:35;;;;;;;;;;;13.70;99.90;;;;;;5078246;28;868;-46
2021/12/25 10:52:11;;;;;;;;;;;13.60;99.90;;;;;;5078061;28;1901;-46
2021/12/25 10:54:44;;;;;;;;;;;13.60;99.90;;;;;;5078417;28;802;-47
2021/12/25 10:57:10;;;;;;;;;;;13.60;99.90;;;;;;5076712;28;901;-47
2021/12/25 10:59:43;;;;;;;;;;;13.60;99.90;;;;;;5077746;28;909;-46
2021/12/25 11:02:09;;;;;;;;;;;13.60;99.90;;;;;;5059932;28;1135;-46
2021/12/25 11:04:36;;;;;;;;;;;13.70;99.90;;;;;;5077471;28;906;-46
2021/12/25 11:07:13;;;;;;;;;;;13.60;99.90;;;;;;5078128;28;1167;-47
2021/12/25 11:10:00;;;;;;;;;;;13.60;99.90;;;;;;5077696;28;1021;-46
2021/12/25 11:12:26;;;;;;;;;;;13.60;99.90;;;;;;5077762;28;1975;-46
2021/12/25 11:15:07;;;;;;;;;;;13.60;99.90;;;;;;5076587;28;968;-46
2021/12/25 11:17:34;;;;;;;;;;;13.60;99.90;;;;;;5074974;28;938;-46
2021/12/25 11:20:02;;;;;;;;;;;13.60;99.90;;;;;;5075555;28;805;-47
2021/12/25 11:22:49;;;;;;;;;;;13.60;99.90;;;;;;5077809;28;923;-47
2021/12/25 11:25:16;;;;;;;;;;;13.60;99.90;;;;;;5073648;28;938;-46
2021/12/25 11:27:42;;;;;;;;;;;13.60;99.90;;;;;;5072921;28;876;-46
2021/12/25 11:30:08;;;;;;;;;;;13.60;99.90;;;;;;5077209;28;916;-46
2021/12/25 11:32:35;;;;;;;;;;;13.60;99.90;;;;;;5076692;28;1969;-46
2021/12/25 11:35:00;;;;;;;;;;;13.60;99.90;;;;;;5076741;28;880;-47
2021/12/25 11:37:26;;;;;;;;;;;13.60;99.90;;;;;;5077861;28;1427;-46
2021/12/25 11:39:54;;;;;;;;;;;13.50;99.90;;;;;;5079061;28;840;-46
2021/12/25 11:42:23;;;;;;;;;;;13.50;99.90;;;;;;5076182;28;889;-46
2021/12/25 11:44:53;;;;;;;;;;;13.50;99.90;;;;;;5077356;28;1020;-44
2021/12/25 11:47:38;;;;;;;;;;;13.50;99.90;;;;;;5076350;28;960;-47
2021/12/25 11:50:09;;;;;;;;;;;13.50;99.90;;;;;;5077048;28;866;-44
2021/12/25 11:52:43;;;;;;;;;;;13.50;99.90;;;;;;5076110;28;1902;-47
2021/12/25 12:00:33;;;;;;;;;;;13.40;99.90;;;;;;5076676;28;824;-47
2021/12/25 12:02:59;;;;;;;;;;;13.40;99.90;;;;;;5076833;28;1060;-47
2021/12/25 12:05:29;;;;;;;;;;;13.40;99.90;;;;;;5076809;28;844;-47
2021/12/25 12:08:12;;;;;;;;;;;13.40;99.90;;;;;;5075956;28;1423;-47
2021/12/25 12:10:44;;;;;;;;;;;13.40;99.90;;;;;;5076994;28;1025;-46
2021/12/25 12:13:30;;;;;;;;;;;13.40;99.90;;;;;;5075998;28;1977;-46
2021/12/25 12:16:01;;;;;;;;;;;13.40;99.90;;;;;;5076234;28;1248;-46
2021/12/25 12:18:31;;;;;;;;;;;13.40;99.90;;;;;;5076583;28;809;-46
2021/12/25 12:21:06;;;;;;;;;;;13.40;99.90;;;;;;5076304;28;1014;-46
2021/12/25 12:24:24;;;;;;;;;;;13.40;99.90;;;;;;5076148;28;833;-46
2021/12/25 12:26:41;;;;;;;;;;;13.40;99.90;;;;;;5070676;28;1168;-46
2021/12/25 12:29:08;;;;;;;;;;;13.40;99.90;;;;;;5075371;28;987;-47
2021/12/25 12:31:39;;;;;;;;;;;13.50;99.90;;;;;;5073387;28;881;-47
2021/12/25 12:34:25;;;;;;;;;;;13.40;99.90;;;;;;5075756;28;1906;-47
2021/12/25 12:37:13;;;;;;;;;;;13.40;99.90;;;;;;5075965;28;1284;-48
2021/12/25 12:39:43;;;;;;;;;;;13.40;99.90;;;;;;5075303;28;1448;-47
2021/12/25 12:42:12;;;;;;;;;;;13.40;99.90;;;;;;5075711;28;817;-47
2021/12/25 12:44:38;;;;;;;;;;;13.40;99.90;;;;;;5076124;28;883;-47
2021/12/25 12:47:06;;;;;;;;;;;13.50;99.90;;;;;;5075786;28;871;-47
2021/12/25 12:49:50;;;;;;;;;;;13.50;99.90;;;;;;5076272;28;847;-47
2021/12/25 12:52:18;;;;;;;;;;;13.50;99.90;;;;;;5074234;28;1906;-46
2021/12/25 12:54:47;;;;;;;;;;;13.50;99.90;;;;;;5074259;28;1061;-46
2021/12/25 12:57:21;;;;;;;;;;;13.50;99.90;;;;;;5075857;28;908;-46
2021/12/25 12:59:51;;;;;;;;;;;13.50;99.90;;;;;;5074699;28;1084;-47
2021/12/25 13:02:17;;;;;;;;;;;13.50;99.90;;;;;;5075291;28;863;-46
2021/12/25 13:04:44;;;;;;;;;;;13.50;99.90;;;;;;5075875;28;932;-46
2021/12/25 13:07:15;;;;;;;;;;;13.40;99.90;;;;;;5076087;28;863;-46
2021/12/25 13:09:48;;;;;;;;;;;13.40;99.90;;;;;;5075782;28;1161;-46
2021/12/25 13:12:31;;;;;;;;;;;13.40;99.90;;;;;;5075942;28;1910;-46
2021/12/25 13:15:02;;;;;;;;;;;13.40;99.90;;;;;;5056089;28;894;-46
2021/12/25 13:17:28;;;;;;;;;;;13.40;99.90;;;;;;5073424;28;959;-46
2021/12/25 13:19:54;;;;;;;;;;;13.40;99.90;;;;;;5075538;28;844;-47
2021/12/25 13:22:21;;;;;;;;;;;13.30;99.90;;;;;;5075255;28;877;-46
2021/12/25 13:24:54;;;;;;;;;;;13.30;99.90;;;;;;5075865;28;943;-46
2021/12/25 13:27:20;;;;;;;;;;;13.30;99.90;;;;;;5075615;28;906;-46
2021/12/25 13:29:46;;;;;;;;;;;13.30;99.90;;;;;;5075664;28;852;-46
2021/12/25 13:32:22;;;;;;;;;;;13.20;99.90;;;;;;5074875;28;1902;-47
2021/12/25 13:34:49;;;;;;;;;;;13.20;99.90;;;;;;5075625;28;825;-47
2021/12/25 13:37:17;;;;;;;;;;;13.20;99.90;;;;;;5090438;28;847;-48
2021/12/25 13:39:44;;;;;;;;;;;13.20;99.90;;;;;;5075424;28;833;-46
2021/12/25 13:42:16;;;;;;;;;;;13.20;99.90;;;;;;5075108;28;909;-46
2021/12/25 13:44:45;;;;;;;;;;;13.10;99.90;;;;;;5075698;28;958;-47
2021/12/25 13:47:30;;;;;;;;;;;13.10;99.90;;;;;;5075472;28;996;-55
2021/12/25 13:50:00;;;;;;;;;;;13.10;99.90;;;;;;5075399;28;915;-55
2021/12/25 13:52:28;;;;;;;;;;;13.10;99.90;;;;;;5078770;28;1911;-55
2021/12/25 13:54:54;;;;;;;;;;;13.10;99.90;;;;;;5079430;28;909;-55
2021/12/25 13:57:20;;;;;;;;;;;13.10;99.90;;;;;;5078376;28;884;-55
2021/12/25 13:59:50;;;;;;;;;;;13.10;99.90;;;;;;5079134;28;816;-55
2021/12/25 14:02:17;;;;;;;;;;;13.10;99.90;;;;;;5078853;28;855;-55
2021/12/25 14:04:46;;;;;;;;;;;13.00;99.90;;;;;;5079312;28;863;-55
2021/12/25 14:07:15;;;;;;;;;;;13.00;99.90;;;;;;5079016;28;805;-55
2021/12/25 14:10:00;;;;;;;;;;;13.00;99.90;;;;;;5078938;28;1126;-55
2021/12/25 14:12:28;;;;;;;;;;;13.00;99.90;;;;;;5079080;28;1906;-55
2021/12/25 14:14:55;;;;;;;;;;;13.00;99.90;;;;;;5075634;28;1076;-56
2021/12/25 14:17:22;;;;;;;;;;;13.10;99.90;;;;;;5078537;28;852;-55
2021/12/25 14:19:49;;;;;;;;;;;13.00;99.90;;;;;;5079107;28;1159;-55
2021/12/25 14:22:19;;;;;;;;;;;13.10;99.90;;;;;;5078968;28;853;-55
2021/12/25 14:24:48;;;;;;;;;;;13.00;99.90;;;;;;5078919;28;892;-55
2021/12/25 14:27:17;;;;;;;;;;;13.00;99.90;;;;;;5078935;28;808;-55
2021/12/25 14:29:45;;;;;;;;;;;13.00;99.90;;;;;;5076007;28;890;-55
2021/12/25 14:32:19;;;;;;;;;;;13.00;99.90;;;;;;5078159;28;943;-55
2021/12/25 14:34:47;;;;;;;;;;;13.00;99.90;;;;;;5078116;28;826;-55
2021/12/25 14:37:26;;;;;;;;;;;13.00;99.90;;;;;;5078813;28;920;-55
2021/12/25 14:40:24;;;;;;;;;;;13.00;99.90;;;;;;5078438;28;796;-55
2021/12/25 14:42:53;;;;;;;;;;;13.00;99.90;;;;;;5078180;28;1455;-55
2021/12/25 14:45:20;;;;;;;;;;;13.00;99.90;;;;;;5078590;28;848;-55
2021/12/25 14:48:06;;;;;;;;;;;12.90;99.90;;;;;;5078257;28;1142;-55
2021/12/25 14:50:33;;;;;;;;;;;12.90;99.90;;;;;;5077048;28;904;-55
2021/12/25 14:53:06;;;;;;;;;;;12.90;99.90;;;;;;5077955;28;1910;-55
2021/12/25 14:55:51;;;;;;;;;;;12.90;99.90;;;;;;5078154;28;895;-55
2021/12/25 14:58:19;;;;;;;;;;;12.90;99.90;;;;;;5078383;28;802;-55
2021/12/25 15:00:48;;;;;;;;;;;12.90;99.90;;;;;;5078095;28;1132;-55
2021/12/25 15:03:19;;;;;;;;;;;12.90;99.90;;;;;;5076915;28;881;-55
2021/12/25 15:05:49;;;;;;;;;;;12.80;99.90;;;;;;5076907;28;943;-55
2021/12/25 15:08:36;;;;;;;;;;;12.80;99.90;;;;;;5077298;28;912;-55
2021/12/25 15:11:04;;;;;;;;;;;12.80;99.90;;;;;;5077097;28;1601;-55
2021/12/25 15:13:31;;;;;;;;;;;12.80;99.90;;;;;;5076835;28;1910;-55
2021/12/25 15:15:58;;;;;;;;;;;12.80;99.90;;;;;;5077809;28;863;-46
2021/12/25 15:18:27;;;;;;;;;;;12.70;99.90;;;;;;5077989;28;903;-55
2021/12/25 15:21:11;;;;;;;;;;;12.70;99.90;;;;;;5077950;28;817;-55
2021/12/25 15:23:38;;;;;;;;;;;12.70;99.90;;;;;;5077546;28;868;-55
2021/12/25 15:26:10;;;;;;;;;;;12.70;99.90;;;;;;5075009;28;922;-55
2021/12/25 15:28:37;;;;;;;;;;;12.70;99.90;;;;;;5058630;28;833;-55
2021/12/25 15:31:13;;;;;;;;;;;12.70;99.90;;;;;;5058782;28;873;-55
2021/12/25 15:33:46;;;;;;;;;;;12.70;99.90;;;;;;5059034;28;1965;-55
2021/12/25 15:36:14;;;;;;;;;;;12.70;99.90;;;;;;5075808;28;950;-55
2021/12/25 15:38:41;;;;;;;;;;;12.70;99.90;;;;;;5074982;28;1154;-55
2021/12/25 15:41:08;;;;;;;;;;;12.70;99.90;;;;;;5075514;28;908;-55
2021/12/25 15:43:34;;;;;;;;;;;12.70;99.90;;;;;;5058089;28;985;-55
2021/12/25 15:46:03;;;;;;;;;;;12.70;99.90;;;;;;5074799;28;842;-55
2021/12/25 15:48:32;;;;;;;;;;;12.70;99.90;;;;;;5075119;28;963;-55
2021/12/25 15:50:58;;;;;;;;;;;12.70;99.90;;;;;;5075421;28;911;-55
2021/12/25 15:53:25;;;;;;;;;;;12.70;99.90;;;;;;5075343;28;1898;-55
2021/12/25 15:55:52;;;;;;;;;;;12.80;99.90;;;;;;5058809;28;1533;-55
2021/12/25 15:58:21;;;;;;;;;;;12.80;99.90;;;;;;5076434;28;918;-55
2021/12/25 16:00:49;;;;;;;;;;;12.80;99.90;;;;;;5076321;28;893;-55
2021/12/25 16:03:18;;;;;;;;;;;12.80;99.90;;;;;;5076461;28;896;-55
2021/12/25 16:05:45;;;;;;;;;;;12.80;99.90;;;;;;5092732;28;818;-55
2021/12/25 16:08:11;;;;;;;;;;;12.90;99.90;;;;;;5076719;28;861;-55
2021/12/25 16:10:38;;;;;;;;;;;12.90;99.90;;;;;;5076607;28;1173;-55